CPX238 Details

Departure: Luis Munoz Marin International Airport (TJSJ)
Arrival: Miami International Airport (KMIA)
Route: ACONY3 PALDE FEKKO Y308 FOWEE FLIPR6


Current Weather Information
TJSJ 181456Z VRB06KT 10SM FEW036 SCT050 SCT070 29/18 A3006 RMK AO2 SLP177 T02940183 51011
KMIA 181453Z 36005KT 10SM FEW010 SCT130 BKN240 23/19 A3006 RMK AO2 SLP178 T02330194 53013